sensor_id;sensor_type;location;lat;lon;timestamp;temperature;humidity
12477;DHT22;6303;51.504;6.300;2023-04-15T00:00:09;22.70;48.60
12477;DHT22;6303;51.504;6.300;2023-04-15T00:02:41;22.70;48.60
12477;DHT22;6303;51.504;6.300;2023-04-15T00:05:09;22.70;48.60
12477;DHT22;6303;51.504;6.300;2023-04-15T00:07:36;22.70;48.60
12477;DHT22;6303;51.504;6.300;2023-04-15T00:10:03;22.70;48.60
12477;DHT22;6303;51.504;6.300;2023-04-15T00:12:30;22.60;48.60
12477;DHT22;6303;51.504;6.300;2023-04-15T00:14:57;22.60;48.60
12477;DHT22;6303;51.504;6.300;2023-04-15T00:17:24;22.70;48.60
12477;DHT22;6303;51.504;6.300;2023-04-15T00:19:53;22.60;48.60
12477;DHT22;6303;51.504;6.300;2023-04-15T00:22:20;22.60;48.70
12477;DHT22;6303;51.504;6.300;2023-04-15T00:24:47;22.60;48.70
12477;DHT22;6303;51.504;6.300;2023-04-15T00:27:14;22.60;48.70
12477;DHT22;6303;51.504;6.300;2023-04-15T00:29:41;22.50;48.70
12477;DHT22;6303;51.504;6.300;2023-04-15T00:32:08;22.60;48.70
12477;DHT22;6303;51.504;6.300;2023-04-15T00:34:35;22.60;48.70
12477;DHT22;6303;51.504;6.300;2023-04-15T00:37:04;22.50;48.70
12477;DHT22;6303;51.504;6.300;2023-04-15T00:39:31;22.60;48.70
12477;DHT22;6303;51.504;6.300;2023-04-15T00:41:58;22.50;48.70
12477;DHT22;6303;51.504;6.300;2023-04-15T00:44:26;22.60;48.70
12477;DHT22;6303;51.504;6.300;2023-04-15T00:46:53;22.50;48.70
12477;DHT22;6303;51.504;6.300;2023-04-15T00:49:21;22.50;48.70
12477;DHT22;6303;51.504;6.300;2023-04-15T00:51:48;22.50;48.70
12477;DHT22;6303;51.504;6.300;2023-04-15T00:54:17;22.50;48.70
12477;DHT22;6303;51.504;6.300;2023-04-15T00:56:44;22.50;48.70
12477;DHT22;6303;51.504;6.300;2023-04-15T00:59:11;22.50;48.80
12477;DHT22;6303;51.504;6.300;2023-04-15T01:01:39;22.50;48.80
12477;DHT22;6303;51.504;6.300;2023-04-15T01:04:07;22.50;48.80
12477;DHT22;6303;51.504;6.300;2023-04-15T01:06:34;22.50;48.80
12477;DHT22;6303;51.504;6.300;2023-04-15T01:09:02;22.50;48.80
12477;DHT22;6303;51.504;6.300;2023-04-15T01:11:31;22.40;48.70
12477;DHT22;6303;51.504;6.300;2023-04-15T01:14:00;22.40;48.80
12477;DHT22;6303;51.504;6.300;2023-04-15T01:16:28;22.40;48.80
12477;DHT22;6303;51.504;6.300;2023-04-15T01:18:55;22.40;48.80
12477;DHT22;6303;51.504;6.300;2023-04-15T01:21:22;22.40;48.70
12477;DHT22;6303;51.504;6.300;2023-04-15T01:23:50;22.40;48.80
12477;DHT22;6303;51.504;6.300;2023-04-15T01:26:21;22.40;48.80
12477;DHT22;6303;51.504;6.300;2023-04-15T01:28:48;22.40;48.80
12477;DHT22;6303;51.504;6.300;2023-04-15T01:31:15;22.40;48.90
12477;DHT22;6303;51.504;6.300;2023-04-15T01:33:42;22.40;48.80
12477;DHT22;6303;51.504;6.300;2023-04-15T01:36:10;22.40;48.90
12477;DHT22;6303;51.504;6.300;2023-04-15T01:38:37;22.40;48.90
12477;DHT22;6303;51.504;6.300;2023-04-15T01:41:04;22.40;48.90
12477;DHT22;6303;51.504;6.300;2023-04-15T01:43:34;22.40;48.90
12477;DHT22;6303;51.504;6.300;2023-04-15T01:46:01;22.30;48.90
12477;DHT22;6303;51.504;6.300;2023-04-15T01:48:31;22.30;48.90
12477;DHT22;6303;51.504;6.300;2023-04-15T01:50:58;22.40;48.90
12477;DHT22;6303;51.504;6.300;2023-04-15T01:53:26;22.40;49.20
12477;DHT22;6303;51.504;6.300;2023-04-15T01:55:53;22.30;49.30
12477;DHT22;6303;51.504;6.300;2023-04-15T01:58:20;22.30;49.40
12477;DHT22;6303;51.504;6.300;2023-04-15T02:00:48;22.40;49.40
12477;DHT22;6303;51.504;6.300;2023-04-15T02:03:15;22.40;49.50
12477;DHT22;6303;51.504;6.300;2023-04-15T02:05:42;22.30;50.10
12477;DHT22;6303;51.504;6.300;2023-04-15T02:08:10;22.30;49.50
12477;DHT22;6303;51.504;6.300;2023-04-15T02:10:38;22.30;49.40
12477;DHT22;6303;51.504;6.300;2023-04-15T02:13:05;22.30;49.40
12477;DHT22;6303;51.504;6.300;2023-04-15T02:15:32;22.30;49.40
12477;DHT22;6303;51.504;6.300;2023-04-15T02:18:01;22.30;49.40
12477;DHT22;6303;51.504;6.300;2023-04-15T02:20:28;22.30;49.40
12477;DHT22;6303;51.504;6.300;2023-04-15T02:22:57;22.30;49.40
12477;DHT22;6303;51.504;6.300;2023-04-15T02:25:24;22.30;49.40
12477;DHT22;6303;51.504;6.300;2023-04-15T02:27:51;22.30;49.40
12477;DHT22;6303;51.504;6.300;2023-04-15T02:30:18;22.30;49.30
12477;DHT22;6303;51.504;6.300;2023-04-15T02:32:46;22.30;49.30
12477;DHT22;6303;51.504;6.300;2023-04-15T02:35:14;22.30;49.30
12477;DHT22;6303;51.504;6.300;2023-04-15T02:37:44;22.20;49.30
12477;DHT22;6303;51.504;6.300;2023-04-15T02:40:11;22.20;49.30
12477;DHT22;6303;51.504;6.300;2023-04-15T02:42:39;22.30;49.30
12477;DHT22;6303;51.504;6.300;2023-04-15T02:45:10;22.20;49.30
12477;DHT22;6303;51.504;6.300;2023-04-15T02:47:38;22.20;49.30
12477;DHT22;6303;51.504;6.300;2023-04-15T02:50:07;22.20;49.30
12477;DHT22;6303;51.504;6.300;2023-04-15T02:52:39;22.20;49.30
12477;DHT22;6303;51.504;6.300;2023-04-15T02:55:08;22.20;49.30
12477;DHT22;6303;51.504;6.300;2023-04-15T02:57:36;22.20;49.30
12477;DHT22;6303;51.504;6.300;2023-04-15T03:00:07;22.20;49.40
12477;DHT22;6303;51.504;6.300;2023-04-15T03:02:39;22.20;49.30
12477;DHT22;6303;51.504;6.300;2023-04-15T03:05:10;22.20;49.30
12477;DHT22;6303;51.504;6.300;2023-04-15T03:07:41;22.10;49.30
12477;DHT22;6303;51.504;6.300;2023-04-15T03:10:08;22.20;49.30
12477;DHT22;6303;51.504;6.300;2023-04-15T03:12:36;22.10;49.30
12477;DHT22;6303;51.504;6.300;2023-04-15T03:15:04;22.20;49.30
12477;DHT22;6303;51.504;6.300;2023-04-15T03:17:36;22.10;49.20
12477;DHT22;6303;51.504;6.300;2023-04-15T03:20:04;22.10;49.10
12477;DHT22;6303;51.504;6.300;2023-04-15T03:22:32;22.20;49.20
12477;DHT22;6303;51.504;6.300;2023-04-15T03:25:01;22.20;49.10
12477;DHT22;6303;51.504;6.300;2023-04-15T03:27:28;22.10;49.20
12477;DHT22;6303;51.504;6.300;2023-04-15T03:29:59;22.20;49.20
12477;DHT22;6303;51.504;6.300;2023-04-15T03:32:29;22.10;49.20
12477;DHT22;6303;51.504;6.300;2023-04-15T03:34:57;22.10;49.30
12477;DHT22;6303;51.504;6.300;2023-04-15T03:37:24;22.10;49.20
12477;DHT22;6303;51.504;6.300;2023-04-15T03:39:51;22.10;49.30
12477;DHT22;6303;51.504;6.300;2023-04-15T03:42:20;22.10;49.30
12477;DHT22;6303;51.504;6.300;2023-04-15T03:44:47;22.10;49.20
12477;DHT22;6303;51.504;6.300;2023-04-15T03:47:14;22.10;49.20
12477;DHT22;6303;51.504;6.300;2023-04-15T03:49:41;22.10;49.80
12477;DHT22;6303;51.504;6.300;2023-04-15T03:52:08;22.10;49.20
12477;DHT22;6303;51.504;6.300;2023-04-15T03:54:35;22.10;49.20
12477;DHT22;6303;51.504;6.300;2023-04-15T03:57:02;22.10;49.10
12477;DHT22;6303;51.504;6.300;2023-04-15T03:59:31;22.10;49.20
12477;DHT22;6303;51.504;6.300;2023-04-15T04:01:58;22.10;49.10
12477;DHT22;6303;51.504;6.300;2023-04-15T04:04:25;22.10;49.10
12477;DHT22;6303;51.504;6.300;2023-04-15T04:06:52;22.10;49.10
12477;DHT22;6303;51.504;6.300;2023-04-15T04:09:19;22.00;49.10
12477;DHT22;6303;51.504;6.300;2023-04-15T04:11:46;22.00;49.10
12477;DHT22;6303;51.504;6.300;2023-04-15T04:14:13;22.00;49.10
12477;DHT22;6303;51.504;6.300;2023-04-15T04:16:41;22.00;49.10
12477;DHT22;6303;51.504;6.300;2023-04-15T04:19:09;22.00;49.00
12477;DHT22;6303;51.504;6.300;2023-04-15T04:21:36;22.00;49.10
12477;DHT22;6303;51.504;6.300;2023-04-15T04:24:04;22.00;49.20
12477;DHT22;6303;51.504;6.300;2023-04-15T04:26:31;22.00;49.20
12477;DHT22;6303;51.504;6.300;2023-04-15T04:28:58;22.00;49.20
12477;DHT22;6303;51.504;6.300;2023-04-15T04:31:25;22.00;49.10
12477;DHT22;6303;51.504;6.300;2023-04-15T04:33:54;22.00;49.10
12477;DHT22;6303;51.504;6.300;2023-04-15T04:36:21;22.00;49.10
12477;DHT22;6303;51.504;6.300;2023-04-15T04:38:48;22.00;49.20
12477;DHT22;6303;51.504;6.300;2023-04-15T04:41:15;22.00;49.20
12477;DHT22;6303;51.504;6.300;2023-04-15T04:43:42;22.00;49.20
12477;DHT22;6303;51.504;6.300;2023-04-15T04:46:09;22.00;49.20
12477;DHT22;6303;51.504;6.300;2023-04-15T04:48:37;22.00;49.10
12477;DHT22;6303;51.504;6.300;2023-04-15T04:51:05;22.00;49.10
12477;DHT22;6303;51.504;6.300;2023-04-15T04:53:32;22.00;49.20
12477;DHT22;6303;51.504;6.300;2023-04-15T04:55:59;22.00;49.20
12477;DHT22;6303;51.504;6.300;2023-04-15T04:58:26;22.00;49.20
12477;DHT22;6303;51.504;6.300;2023-04-15T05:00:54;21.90;49.10
12477;DHT22;6303;51.504;6.300;2023-04-15T05:03:21;22.00;49.20
12477;DHT22;6303;51.504;6.300;2023-04-15T05:05:48;22.00;49.10
12477;DHT22;6303;51.504;6.300;2023-04-15T05:08:16;21.90;49.10
12477;DHT22;6303;51.504;6.300;2023-04-15T05:10:43;22.00;49.20
12477;DHT22;6303;51.504;6.300;2023-04-15T05:13:11;22.00;49.20
12477;DHT22;6303;51.504;6.300;2023-04-15T05:15:38;22.00;49.20
12477;DHT22;6303;51.504;6.300;2023-04-15T05:18:06;21.90;49.10
12477;DHT22;6303;51.504;6.300;2023-04-15T05:20:33;22.00;49.20
12477;DHT22;6303;51.504;6.300;2023-04-15T05:23:00;22.00;49.10
12477;DHT22;6303;51.504;6.300;2023-04-15T05:25:28;22.00;49.00
12477;DHT22;6303;51.504;6.300;2023-04-15T05:27:55;22.00;49.00
12477;DHT22;6303;51.504;6.300;2023-04-15T05:30:22;22.00;49.00
12477;DHT22;6303;51.504;6.300;2023-04-15T05:32:49;22.00;49.00
12477;DHT22;6303;51.504;6.300;2023-04-15T05:35:17;22.00;48.90
12477;DHT22;6303;51.504;6.300;2023-04-15T05:37:44;22.00;49.00
12477;DHT22;6303;51.504;6.300;2023-04-15T05:40:11;22.10;49.00
12477;DHT22;6303;51.504;6.300;2023-04-15T05:42:40;22.10;48.90
12477;DHT22;6303;51.504;6.300;2023-04-15T05:45:07;22.20;48.80
12477;DHT22;6303;51.504;6.300;2023-04-15T05:47:35;22.20;48.80
12477;DHT22;6303;51.504;6.300;2023-04-15T05:50:02;22.30;48.60
12477;DHT22;6303;51.504;6.300;2023-04-15T05:52:30;22.40;48.60
12477;DHT22;6303;51.504;6.300;2023-04-15T05:54:57;22.40;48.50
12477;DHT22;6303;51.504;6.300;2023-04-15T05:57:24;22.50;48.40
12477;DHT22;6303;51.504;6.300;2023-04-15T05:59:53;22.50;48.30
12477;DHT22;6303;51.504;6.300;2023-04-15T06:02:21;22.60;48.40
12477;DHT22;6303;51.504;6.300;2023-04-15T06:04:48;22.60;48.30
12477;DHT22;6303;51.504;6.300;2023-04-15T06:07:16;22.70;48.40
12477;DHT22;6303;51.504;6.300;2023-04-15T06:09:43;22.70;48.50
12477;DHT22;6303;51.504;6.300;2023-04-15T06:12:10;22.70;48.40
12477;DHT22;6303;51.504;6.300;2023-04-15T06:14:37;22.80;48.50
12477;DHT22;6303;51.504;6.300;2023-04-15T06:17:06;22.80;48.40
12477;DHT22;6303;51.504;6.300;2023-04-15T06:19:33;22.90;48.30
12477;DHT22;6303;51.504;6.300;2023-04-15T06:22:01;22.90;48.30
12477;DHT22;6303;51.504;6.300;2023-04-15T06:24:28;22.90;48.10
12477;DHT22;6303;51.504;6.300;2023-04-15T06:26:56;23.00;48.10
12477;DHT22;6303;51.504;6.300;2023-04-15T06:29:23;23.00;48.10
12477;DHT22;6303;51.504;6.300;2023-04-15T06:31:50;23.00;48.00
12477;DHT22;6303;51.504;6.300;2023-04-15T06:34:18;23.00;48.00
12477;DHT22;6303;51.504;6.300;2023-04-15T06:36:46;23.00;47.90
12477;DHT22;6303;51.504;6.300;2023-04-15T06:39:13;23.00;47.80
12477;DHT22;6303;51.504;6.300;2023-04-15T06:41:40;23.00;47.80
12477;DHT22;6303;51.504;6.300;2023-04-15T06:44:07;23.00;47.70
12477;DHT22;6303;51.504;6.300;2023-04-15T06:46:34;23.00;47.70
12477;DHT22;6303;51.504;6.300;2023-04-15T06:49:01;23.10;47.80
12477;DHT22;6303;51.504;6.300;2023-04-15T06:51:29;23.10;47.70
12477;DHT22;6303;51.504;6.300;2023-04-15T06:53:57;23.10;47.60
12477;DHT22;6303;51.504;6.300;2023-04-15T06:56:24;23.10;47.60
12477;DHT22;6303;51.504;6.300;2023-04-15T06:58:51;23.10;47.60
12477;DHT22;6303;51.504;6.300;2023-04-15T07:01:19;22.90;47.50
12477;DHT22;6303;51.504;6.300;2023-04-15T07:03:46;23.20;47.60
12477;DHT22;6303;51.504;6.300;2023-04-15T07:06:13;23.20;47.50
12477;DHT22;6303;51.504;6.300;2023-04-15T07:08:41;23.20;47.50
12477;DHT22;6303;51.504;6.300;2023-04-15T07:11:08;23.20;47.60
12477;DHT22;6303;51.504;6.300;2023-04-15T07:13:36;23.20;47.60
12477;DHT22;6303;51.504;6.300;2023-04-15T07:16:03;23.30;47.60
12477;DHT22;6303;51.504;6.300;2023-04-15T07:18:30;23.30;47.50
12477;DHT22;6303;51.504;6.300;2023-04-15T07:20:57;23.30;47.50
12477;DHT22;6303;51.504;6.300;2023-04-15T07:23:24;23.40;47.50
12477;DHT22;6303;51.504;6.300;2023-04-15T07:25:53;23.40;47.40
12477;DHT22;6303;51.504;6.300;2023-04-15T07:28:21;23.40;47.50
12477;DHT22;6303;51.504;6.300;2023-04-15T07:30:48;23.40;47.40
12477;DHT22;6303;51.504;6.300;2023-04-15T07:33:15;23.40;47.40
12477;DHT22;6303;51.504;6.300;2023-04-15T07:35:42;23.40;47.30
12477;DHT22;6303;51.504;6.300;2023-04-15T07:38:10;23.50;47.30
12477;DHT22;6303;51.504;6.300;2023-04-15T07:40:38;23.50;47.30
12477;DHT22;6303;51.504;6.300;2023-04-15T07:43:07;23.60;47.30
12477;DHT22;6303;51.504;6.300;2023-04-15T07:45:35;23.60;47.20
12477;DHT22;6303;51.504;6.300;2023-04-15T07:48:03;23.60;47.10
12477;DHT22;6303;51.504;6.300;2023-04-15T07:50:30;23.70;47.10
12477;DHT22;6303;51.504;6.300;2023-04-15T07:52:57;23.70;47.10
12477;DHT22;6303;51.504;6.300;2023-04-15T07:55:24;23.70;47.10
12477;DHT22;6303;51.504;6.300;2023-04-15T07:57:51;23.70;47.00
12477;DHT22;6303;51.504;6.300;2023-04-15T08:00:20;23.70;47.00
12477;DHT22;6303;51.504;6.300;2023-04-15T08:02:47;23.70;47.60
12477;DHT22;6303;51.504;6.300;2023-04-15T08:05:14;23.70;47.10
12477;DHT22;6303;51.504;6.300;2023-04-15T08:07:41;23.60;47.10
12477;DHT22;6303;51.504;6.300;2023-04-15T08:10:08;23.60;47.80
12477;DHT22;6303;51.504;6.300;2023-04-15T08:12:37;23.70;47.10
12477;DHT22;6303;51.504;6.300;2023-04-15T08:15:04;23.70;47.00
12477;DHT22;6303;51.504;6.300;2023-04-15T08:17:34;23.70;47.00
12477;DHT22;6303;51.504;6.300;2023-04-15T08:20:01;23.80;47.00
12477;DHT22;6303;51.504;6.300;2023-04-15T08:22:28;23.90;46.90
12477;DHT22;6303;51.504;6.300;2023-04-15T08:24:55;23.90;46.80
12477;DHT22;6303;51.504;6.300;2023-04-15T08:27:22;23.90;46.70
12477;DHT22;6303;51.504;6.300;2023-04-15T08:29:49;23.90;46.60
12477;DHT22;6303;51.504;6.300;2023-04-15T08:32:16;23.90;46.60
12477;DHT22;6303;51.504;6.300;2023-04-15T08:34:45;24.00;46.60
12477;DHT22;6303;51.504;6.300;2023-04-15T08:37:12;23.90;46.60
12477;DHT22;6303;51.504;6.300;2023-04-15T08:39:39;23.90;46.80
12477;DHT22;6303;51.504;6.300;2023-04-15T08:42:10;23.90;46.80
12477;DHT22;6303;51.504;6.300;2023-04-15T08:44:39;23.90;46.80
12477;DHT22;6303;51.504;6.300;2023-04-15T08:47:07;23.90;46.80
12477;DHT22;6303;51.504;6.300;2023-04-15T08:49:39;23.90;47.00
12477;DHT22;6303;51.504;6.300;2023-04-15T08:52:08;23.90;46.90
12477;DHT22;6303;51.504;6.300;2023-04-15T08:54:35;23.90;46.80
12477;DHT22;6303;51.504;6.300;2023-04-15T08:57:02;24.00;46.80
12477;DHT22;6303;51.504;6.300;2023-04-15T08:59:30;24.00;46.70
12477;DHT22;6303;51.504;6.300;2023-04-15T09:01:57;24.00;46.60
12477;DHT22;6303;51.504;6.300;2023-04-15T09:04:24;24.00;47.00
12477;DHT22;6303;51.504;6.300;2023-04-15T09:06:51;24.00;47.30
12477;DHT22;6303;51.504;6.300;2023-04-15T09:09:20;24.10;47.50
12477;DHT22;6303;51.504;6.300;2023-04-15T09:11:47;24.10;47.60
12477;DHT22;6303;51.504;6.300;2023-04-15T09:14:14;24.10;47.50
12477;DHT22;6303;51.504;6.300;2023-04-15T09:16:58;24.10;47.40
12477;DHT22;6303;51.504;6.300;2023-04-15T09:19:26;24.20;47.30
12477;DHT22;6303;51.504;6.300;2023-04-15T09:21:54;24.20;47.20
12477;DHT22;6303;51.504;6.300;2023-04-15T09:24:24;24.20;47.20
12477;DHT22;6303;51.504;6.300;2023-04-15T09:26:53;24.20;47.00
12477;DHT22;6303;51.504;6.300;2023-04-15T09:29:23;24.20;46.90
12477;DHT22;6303;51.504;6.300;2023-04-15T09:31:51;24.30;46.80
12477;DHT22;6303;51.504;6.300;2023-04-15T09:34:18;24.30;46.70
12477;DHT22;6303;51.504;6.300;2023-04-15T09:36:53;24.30;46.60
12477;DHT22;6303;51.504;6.300;2023-04-15T09:39:20;24.30;46.60
12477;DHT22;6303;51.504;6.300;2023-04-15T09:42:03;24.30;46.50
12477;DHT22;6303;51.504;6.300;2023-04-15T09:44:31;24.40;46.50
12477;DHT22;6303;51.504;6.300;2023-04-15T09:46:58;24.40;46.40
12477;DHT22;6303;51.504;6.300;2023-04-15T09:49:25;24.40;46.40
12477;DHT22;6303;51.504;6.300;2023-04-15T09:51:57;24.40;46.30
12477;DHT22;6303;51.504;6.300;2023-04-15T09:54:35;24.40;46.20
12477;DHT22;6303;51.504;6.300;2023-04-15T09:57:07;24.50;46.10
12477;DHT22;6303;51.504;6.300;2023-04-15T09:59:37;24.60;45.90
12477;DHT22;6303;51.504;6.300;2023-04-15T10:02:04;24.70;45.80
12477;DHT22;6303;51.504;6.300;2023-04-15T10:04:34;24.70;45.60
12477;DHT22;6303;51.504;6.300;2023-04-15T10:07:04;24.70;45.50
12477;DHT22;6303;51.504;6.300;2023-04-15T10:09:31;24.80;45.50
12477;DHT22;6303;51.504;6.300;2023-04-15T10:11:59;24.80;45.50
12477;DHT22;6303;51.504;6.300;2023-04-15T10:14:32;24.70;45.40
12477;DHT22;6303;51.504;6.300;2023-04-15T10:17:01;24.70;45.40
12477;DHT22;6303;51.504;6.300;2023-04-15T10:19:30;24.70;45.40
12477;DHT22;6303;51.504;6.300;2023-04-15T10:21:58;24.60;45.40
12477;DHT22;6303;51.504;6.300;2023-04-15T10:24:25;24.60;45.40
12477;DHT22;6303;51.504;6.300;2023-04-15T10:26:53;24.60;45.50
12477;DHT22;6303;51.504;6.300;2023-04-15T10:29:23;24.60;45.50
12477;DHT22;6303;51.504;6.300;2023-04-15T10:31:53;24.60;45.40
12477;DHT22;6303;51.504;6.300;2023-04-15T10:34:22;24.60;45.40
12477;DHT22;6303;51.504;6.300;2023-04-15T10:36:50;24.60;45.40
12477;DHT22;6303;51.504;6.300;2023-04-15T10:39:42;24.60;45.30
12477;DHT22;6303;51.504;6.300;2023-04-15T10:42:10;24.60;45.30
12477;DHT22;6303;51.504;6.300;2023-04-15T10:44:38;24.60;45.30
12477;DHT22;6303;51.504;6.300;2023-04-15T10:47:09;24.60;45.30
12477;DHT22;6303;51.504;6.300;2023-04-15T10:49:45;24.60;45.10
12477;DHT22;6303;51.504;6.300;2023-04-15T10:52:14;24.70;45.00
12477;DHT22;6303;51.504;6.300;2023-04-15T10:54:42;24.70;44.80
12477;DHT22;6303;51.504;6.300;2023-04-15T10:57:15;24.70;44.90
12477;DHT22;6303;51.504;6.300;2023-04-15T11:00:08;24.70;45.50
12477;DHT22;6303;51.504;6.300;2023-04-15T11:02:45;24.70;44.90
12477;DHT22;6303;51.504;6.300;2023-04-15T11:05:13;24.70;44.70
12477;DHT22;6303;51.504;6.300;2023-04-15T11:07:47;24.60;44.70
12477;DHT22;6303;51.504;6.300;2023-04-15T11:10:51;24.60;44.80
12477;DHT22;6303;51.504;6.300;2023-04-15T11:13:25;24.60;44.80
12477;DHT22;6303;51.504;6.300;2023-04-15T11:15:58;24.60;44.80
12477;DHT22;6303;51.504;6.300;2023-04-15T11:18:29;24.60;44.70
12477;DHT22;6303;51.504;6.300;2023-04-15T11:21:00;24.60;44.70
12477;DHT22;6303;51.504;6.300;2023-04-15T11:23:33;24.70;44.70
12477;DHT22;6303;51.504;6.300;2023-04-15T11:26:02;24.60;44.60
12477;DHT22;6303;51.504;6.300;2023-04-15T11:28:34;24.60;44.70
12477;DHT22;6303;51.504;6.300;2023-04-15T11:31:06;24.60;44.70
12477;DHT22;6303;51.504;6.300;2023-04-15T11:33:34;24.50;44.60
12477;DHT22;6303;51.504;6.300;2023-04-15T11:36:01;24.50;44.70
12477;DHT22;6303;51.504;6.300;2023-04-15T11:38:29;24.50;44.60
12477;DHT22;6303;51.504;6.300;2023-04-15T11:40:57;24.60;44.60
12477;DHT22;6303;51.504;6.300;2023-04-15T11:43:24;24.60;44.40
12477;DHT22;6303;51.504;6.300;2023-04-15T11:45:53;24.70;44.30
12477;DHT22;6303;51.504;6.300;2023-04-15T11:48:22;24.70;44.20
12477;DHT22;6303;51.504;6.300;2023-04-15T11:50:54;24.70;44.20
12477;DHT22;6303;51.504;6.300;2023-04-15T11:53:22;24.70;44.20
12477;DHT22;6303;51.504;6.300;2023-04-15T11:55:51;24.60;44.20
12477;DHT22;6303;51.504;6.300;2023-04-15T11:58:20;24.60;44.20
12477;DHT22;6303;51.504;6.300;2023-04-15T12:00:49;24.60;44.20
12477;DHT22;6303;51.504;6.300;2023-04-15T12:03:24;24.60;44.30
12477;DHT22;6303;51.504;6.300;2023-04-15T12:06:11;24.50;44.30
12477;DHT22;6303;51.504;6.300;2023-04-15T12:08:58;24.50;44.40
12477;DHT22;6303;51.504;6.300;2023-04-15T12:11:31;24.50;44.40
12477;DHT22;6303;51.504;6.300;2023-04-15T12:14:05;24.40;44.40
12477;DHT22;6303;51.504;6.300;2023-04-15T12:16:33;24.40;44.50
12477;DHT22;6303;51.504;6.300;2023-04-15T12:19:06;24.40;44.50
12477;DHT22;6303;51.504;6.300;2023-04-15T12:21:36;24.40;44.50
12477;DHT22;6303;51.504;6.300;2023-04-15T12:24:05;24.40;44.50
12477;DHT22;6303;51.504;6.300;2023-04-15T12:26:35;24.40;44.60
12477;DHT22;6303;51.504;6.300;2023-04-15T12:29:05;24.40;44.50
12477;DHT22;6303;51.504;6.300;2023-04-15T12:31:33;24.40;44.50
12477;DHT22;6303;51.504;6.300;2023-04-15T12:34:00;24.30;44.60
12477;DHT22;6303;51.504;6.300;2023-04-15T12:36:28;24.30;44.70
12477;DHT22;6303;51.504;6.300;2023-04-15T12:38:59;24.20;44.60
12477;DHT22;6303;51.504;6.300;2023-04-15T12:41:26;24.20;44.70
12477;DHT22;6303;51.504;6.300;2023-04-15T12:43:53;24.20;45.30
12477;DHT22;6303;51.504;6.300;2023-04-15T12:46:20;24.20;44.80
12477;DHT22;6303;51.504;6.300;2023-04-15T12:48:47;24.10;44.90
12477;DHT22;6303;51.504;6.300;2023-04-15T12:51:14;24.10;45.00
12477;DHT22;6303;51.504;6.300;2023-04-15T12:53:41;24.10;44.90
12477;DHT22;6303;51.504;6.300;2023-04-15T12:56:09;24.10;45.00
12477;DHT22;6303;51.504;6.300;2023-04-15T12:58:36;24.10;45.10
12477;DHT22;6303;51.504;6.300;2023-04-15T13:01:03;24.00;45.10
12477;DHT22;6303;51.504;6.300;2023-04-15T13:03:31;24.00;45.10
12477;DHT22;6303;51.504;6.300;2023-04-15T13:05:58;24.00;45.20
12477;DHT22;6303;51.504;6.300;2023-04-15T13:08:26;24.00;45.30
12477;DHT22;6303;51.504;6.300;2023-04-15T13:10:53;24.00;45.30
12477;DHT22;6303;51.504;6.300;2023-04-15T13:13:22;24.00;45.20
12477;DHT22;6303;51.504;6.300;2023-04-15T13:15:49;24.00;45.20
12477;DHT22;6303;51.504;6.300;2023-04-15T13:18:16;24.00;45.30
12477;DHT22;6303;51.504;6.300;2023-04-15T13:20:43;24.00;45.40
12477;DHT22;6303;51.504;6.300;2023-04-15T13:23:11;24.00;45.40
12477;DHT22;6303;51.504;6.300;2023-04-15T13:25:38;24.00;45.30
12477;DHT22;6303;51.504;6.300;2023-04-15T13:28:05;24.00;45.40
12477;DHT22;6303;51.504;6.300;2023-04-15T13:30:33;24.00;45.40
12477;DHT22;6303;51.504;6.300;2023-04-15T13:33:00;24.00;45.50
12477;DHT22;6303;51.504;6.300;2023-04-15T13:35:27;23.90;45.40
12477;DHT22;6303;51.504;6.300;2023-04-15T13:37:54;23.90;45.50
12477;DHT22;6303;51.504;6.300;2023-04-15T13:40:22;23.90;45.40
12477;DHT22;6303;51.504;6.300;2023-04-15T13:42:50;23.90;45.50
12477;DHT22;6303;51.504;6.300;2023-04-15T13:45:18;23.90;45.60
12477;DHT22;6303;51.504;6.300;2023-04-15T13:47:46;23.90;45.60
12477;DHT22;6303;51.504;6.300;2023-04-15T13:50:13;23.90;45.50
12477;DHT22;6303;51.504;6.300;2023-04-15T13:52:41;23.90;45.60
12477;DHT22;6303;51.504;6.300;2023-04-15T13:55:09;23.90;45.60
12477;DHT22;6303;51.504;6.300;2023-04-15T13:57:36;24.50;45.90
12477;DHT22;6303;51.504;6.300;2023-04-15T14:00:03;23.90;45.60
12477;DHT22;6303;51.504;6.300;2023-04-15T14:02:32;23.90;45.60
12477;DHT22;6303;51.504;6.300;2023-04-15T14:05:00;23.90;45.60
12477;DHT22;6303;51.504;6.300;2023-04-15T14:07:28;23.90;45.60
12477;DHT22;6303;51.504;6.300;2023-04-15T14:09:55;23.90;45.60
12477;DHT22;6303;51.504;6.300;2023-04-15T14:12:22;23.90;45.40
12477;DHT22;6303;51.504;6.300;2023-04-15T14:14:49;23.90;45.40
12477;DHT22;6303;51.504;6.300;2023-04-15T14:17:16;23.90;45.40
12477;DHT22;6303;51.504;6.300;2023-04-15T14:19:43;23.90;45.60
12477;DHT22;6303;51.504;6.300;2023-04-15T14:22:12;23.90;45.80
12477;DHT22;6303;51.504;6.300;2023-04-15T14:24:39;23.90;46.00
12477;DHT22;6303;51.504;6.300;2023-04-15T14:27:06;23.90;46.10
12477;DHT22;6303;51.504;6.300;2023-04-15T14:29:35;23.90;46.10
12477;DHT22;6303;51.504;6.300;2023-04-15T14:32:02;23.90;46.10
12477;DHT22;6303;51.504;6.300;2023-04-15T14:34:30;23.90;46.10
12477;DHT22;6303;51.504;6.300;2023-04-15T14:36:57;23.90;46.10
12477;DHT22;6303;51.504;6.300;2023-04-15T14:39:25;23.90;46.10
12477;DHT22;6303;51.504;6.300;2023-04-15T14:41:52;23.90;46.10
12477;DHT22;6303;51.504;6.300;2023-04-15T14:44:20;23.90;46.10
12477;DHT22;6303;51.504;6.300;2023-04-15T14:46:47;23.90;46.00
12477;DHT22;6303;51.504;6.300;2023-04-15T14:49:14;23.90;46.10
12477;DHT22;6303;51.504;6.300;2023-04-15T14:51:41;23.90;46.00
12477;DHT22;6303;51.504;6.300;2023-04-15T14:54:08;23.90;46.00
12477;DHT22;6303;51.504;6.300;2023-04-15T14:56:37;23.90;46.00
12477;DHT22;6303;51.504;6.300;2023-04-15T14:59:04;23.90;45.90
12477;DHT22;6303;51.504;6.300;2023-04-15T15:01:31;23.90;45.90
12477;DHT22;6303;51.504;6.300;2023-04-15T15:03:58;23.90;45.90
12477;DHT22;6303;51.504;6.300;2023-04-15T15:06:26;23.90;45.90
12477;DHT22;6303;51.504;6.300;2023-04-15T15:08:53;23.90;45.90
12477;DHT22;6303;51.504;6.300;2023-04-15T15:11:20;23.90;45.90
12477;DHT22;6303;51.504;6.300;2023-04-15T15:13:49;23.90;45.90
12477;DHT22;6303;51.504;6.300;2023-04-15T15:16:16;23.90;46.00
12477;DHT22;6303;51.504;6.300;2023-04-15T15:18:43;23.90;46.10
12477;DHT22;6303;51.504;6.300;2023-04-15T15:21:10;23.90;46.10
12477;DHT22;6303;51.504;6.300;2023-04-15T15:23:37;23.90;46.00
12477;DHT22;6303;51.504;6.300;2023-04-15T15:26:04;23.90;46.00
12477;DHT22;6303;51.504;6.300;2023-04-15T15:28:31;23.90;46.10
12477;DHT22;6303;51.504;6.300;2023-04-15T15:31:01;23.80;46.10
12477;DHT22;6303;51.504;6.300;2023-04-15T15:33:29;23.80;46.20
12477;DHT22;6303;51.504;6.300;2023-04-15T15:35:57;23.80;46.30
12477;DHT22;6303;51.504;6.300;2023-04-15T15:38:25;23.70;46.30
12477;DHT22;6303;51.504;6.300;2023-04-15T15:40:52;23.70;46.30
12477;DHT22;6303;51.504;6.300;2023-04-15T15:43:19;23.70;46.30
12477;DHT22;6303;51.504;6.300;2023-04-15T15:45:46;23.70;46.30
12477;DHT22;6303;51.504;6.300;2023-04-15T15:48:17;23.70;46.30
12477;DHT22;6303;51.504;6.300;2023-04-15T15:50:44;23.70;46.30